TGW318 WSSS-WAMM
Flight info
| Callsign | TGW318 |
|---|---|
| Flight time | 3h 0m |
| Altitude | 35000 |
| Route | DODSO1B DODSO T21 OBDOS L504 ESGAR DCT GOTSA |
| Aircraft | A320/M-SDFGHIRWYZ/LB1 |
Departure
| Time | 2026-04-12 10:31 |
|---|---|
| Airport | Singapore Changi Airport (WSSS) |
Arrival
| Time | 2026-04-12 13:31 |
|---|---|
| Airport | Sam Ratulangi International Airport (WAMM) |
| Time | Latitude | Longitude | Altitude | Speed | Heading |
|---|---|---|---|---|---|
| 2026-04-12 09:48 | 1.36245 | 103.99315 | 33 ft | 0 kts | 292° |
| 2026-04-12 10:22 | 1.36245 | 103.99316 | 32 ft | 2 kts | 292° |
| 2026-04-12 10:22 | 1.36235 | 103.99339 | 31 ft | 4 kts | 292° |
| 2026-04-12 10:23 | 1.36225 | 103.99363 | 32 ft | 4 kts | 293° |
| 2026-04-12 10:23 | 1.36211 | 103.99386 | 30 ft | 4 kts | 322° |
| 2026-04-12 10:23 | 1.36190 | 103.99393 | 32 ft | 2 kts | 21° |
| 2026-04-12 10:23 | 1.36188 | 103.99393 | 32 ft | 0 kts | 22° |
| 2026-04-12 10:26 | 1.36192 | 103.99394 | 32 ft | 2 kts | 22° |
| 2026-04-12 10:26 | 1.36224 | 103.99408 | 30 ft | 8 kts | 22° |
| 2026-04-12 10:27 | 1.36276 | 103.99440 | 32 ft | 10 kts | 46° |
| 2026-04-12 10:27 | 1.36320 | 103.99496 | 31 ft | 11 kts | 52° |
| 2026-04-12 10:27 | 1.36371 | 103.99562 | 32 ft | 13 kts | 49° |
| 2026-04-12 10:27 | 1.36452 | 103.99607 | 32 ft | 14 kts | 21° |
| 2026-04-12 10:28 | 1.36548 | 103.99647 | 32 ft | 15 kts | 23° |
| 2026-04-12 10:28 | 1.36622 | 103.99680 | 32 ft | 10 kts | 33° |
| 2026-04-12 10:28 | 1.36620 | 103.99745 | 31 ft | 11 kts | 112° |
| 2026-04-12 10:28 | 1.36588 | 103.99821 | 32 ft | 13 kts | 116° |
| 2026-04-12 10:29 | 1.36511 | 103.99827 | 32 ft | 13 kts | 202° |
| 2026-04-12 10:29 | 1.36419 | 103.99813 | 32 ft | 14 kts | 153° |
| 2026-04-12 10:29 | 1.36329 | 103.99865 | 31 ft | 16 kts | 169° |
| 2026-04-12 10:29 | 1.36207 | 103.99882 | 30 ft | 19 kts | 172° |
| 2026-04-12 10:30 | 1.36123 | 103.99868 | 30 ft | 11 kts | 202° |
| 2026-04-12 10:30 | 1.35956 | 103.99798 | 31 ft | 56 kts | 203° |
| 2026-04-12 10:30 | 1.35401 | 103.99563 | 33 ft | 114 kts | 202° |
| 2026-04-12 10:30 | 1.34521 | 103.99192 | 34 ft | 159 kts | 203° |
| 2026-04-12 10:31 | 1.33385 | 103.98714 | 97 ft | 190 kts | 202° |
| 2026-04-12 10:31 | 1.32169 | 103.98189 | 668 ft | 191 kts | 202° |
| 2026-04-12 10:31 | 1.30939 | 103.97673 | 1272 ft | 192 kts | 201° |
| 2026-04-12 10:31 | 1.29723 | 103.97169 | 1828 ft | 196 kts | 202° |
| 2026-04-12 10:32 | 1.28387 | 103.96606 | 1985 ft | 220 kts | 202° |
| 2026-04-12 10:32 | 1.26900 | 103.95976 | 2235 ft | 244 kts | 202° |
| 2026-04-12 10:32 | 1.25275 | 103.95290 | 2657 ft | 261 kts | 202° |
| 2026-04-12 10:32 | 1.23500 | 103.94875 | 3318 ft | 268 kts | 176° |
| 2026-04-12 10:33 | 1.21746 | 103.95485 | 3998 ft | 273 kts | 144° |
| 2026-04-12 10:33 | 1.20254 | 103.96680 | 4728 ft | 278 kts | 139° |
| 2026-04-12 10:33 | 1.18785 | 103.97965 | 5422 ft | 282 kts | 138° |
| 2026-04-12 10:33 | 1.17341 | 103.99264 | 6148 ft | 285 kts | 137° |
| 2026-04-12 10:34 | 1.15862 | 104.00594 | 6817 ft | 288 kts | 137° |
| 2026-04-12 10:34 | 1.14522 | 104.02089 | 7476 ft | 291 kts | 121° |
| 2026-04-12 10:34 | 1.13638 | 104.03915 | 8146 ft | 293 kts | 112° |
| 2026-04-12 10:34 | 1.12828 | 104.05798 | 8820 ft | 296 kts | 112° |
| 2026-04-12 10:35 | 1.12006 | 104.07689 | 9485 ft | 298 kts | 112° |
| 2026-04-12 10:35 | 1.11171 | 104.09598 | 10099 ft | 301 kts | 112° |
| 2026-04-12 10:35 | 1.10313 | 104.11556 | 10272 ft | 321 kts | 112° |
| 2026-04-12 10:35 | 1.09390 | 104.13662 | 10400 ft | 341 kts | 112° |
| 2026-04-12 10:36 | 1.08509 | 104.15920 | 10589 ft | 355 kts | 105° |
| 2026-04-12 10:36 | 1.08060 | 104.18362 | 11029 ft | 360 kts | 93° |
| 2026-04-12 10:36 | 1.08060 | 104.20859 | 11553 ft | 362 kts | 87° |
| 2026-04-12 10:36 | 1.08152 | 104.23381 | 12100 ft | 364 kts | 87° |
| 2026-04-12 10:37 | 1.08242 | 104.25921 | 12635 ft | 367 kts | 87° |
| 2026-04-12 10:37 | 1.08331 | 104.28477 | 13160 ft | 370 kts | 87° |
| 2026-04-12 10:37 | 1.08419 | 104.31018 | 13674 ft | 372 kts | 87° |
| 2026-04-12 10:37 | 1.08507 | 104.33611 | 14135 ft | 375 kts | 87° |
| 2026-04-12 10:38 | 1.08597 | 104.36229 | 14611 ft | 377 kts | 87° |
| 2026-04-12 10:38 | 1.08688 | 104.38856 | 15072 ft | 379 kts | 87° |
| 2026-04-12 10:38 | 1.08826 | 104.41490 | 15522 ft | 382 kts | 82° |
| 2026-04-12 10:38 | 1.09420 | 104.44074 | 15973 ft | 383 kts | 70° |
| 2026-04-12 10:39 | 1.10550 | 104.46488 | 16424 ft | 385 kts | 58° |
| 2026-04-12 10:39 | 1.12173 | 104.48623 | 16872 ft | 388 kts | 46° |
| 2026-04-12 10:39 | 1.14093 | 104.50535 | 17330 ft | 390 kts | 45° |
| 2026-04-12 10:39 | 1.15999 | 104.52420 | 17781 ft | 393 kts | 45° |
| 2026-04-12 10:40 | 1.17884 | 104.54407 | 18210 ft | 396 kts | 53° |
| 2026-04-12 10:40 | 1.19223 | 104.56809 | 18580 ft | 398 kts | 71° |
| 2026-04-12 10:40 | 1.19766 | 104.59513 | 18959 ft | 401 kts | 89° |
| 2026-04-12 10:40 | 1.19441 | 104.62277 | 19338 ft | 403 kts | 106° |
| 2026-04-12 10:41 | 1.18559 | 104.64946 | 19740 ft | 406 kts | 109° |
| 2026-04-12 10:41 | 1.17649 | 104.67625 | 20150 ft | 408 kts | 109° |
| 2026-04-12 10:41 | 1.16736 | 104.70323 | 20554 ft | 411 kts | 109° |
| 2026-04-12 10:41 | 1.15832 | 104.73001 | 20935 ft | 414 kts | 109° |
| 2026-04-12 10:42 | 1.14910 | 104.75732 | 21326 ft | 416 kts | 109° |
| 2026-04-12 10:42 | 1.13985 | 104.78481 | 21693 ft | 419 kts | 109° |
| 2026-04-12 10:42 | 1.13057 | 104.81247 | 22058 ft | 421 kts | 109° |
| 2026-04-12 10:42 | 1.12125 | 104.84028 | 22420 ft | 423 kts | 109° |
| 2026-04-12 10:43 | 1.10249 | 104.89630 | 23114 ft | 427 kts | 109° |
| 2026-04-12 10:43 | 1.09302 | 104.92451 | 23453 ft | 429 kts | 110° |
| 2026-04-12 10:43 | 1.08360 | 104.95249 | 23734 ft | 431 kts | 110° |
| 2026-04-12 10:44 | 1.07404 | 104.98087 | 23990 ft | 432 kts | 110° |
| 2026-04-12 10:44 | 1.06443 | 105.00943 | 24246 ft | 434 kts | 110° |
| 2026-04-12 10:44 | 1.05480 | 105.03809 | 24525 ft | 436 kts | 110° |
| 2026-04-12 10:44 | 1.04512 | 105.06679 | 24790 ft | 437 kts | 110° |
| 2026-04-12 10:45 | 1.03539 | 105.09564 | 25051 ft | 439 kts | 110° |
| 2026-04-12 10:45 | 1.02565 | 105.12455 | 25308 ft | 440 kts | 110° |
| 2026-04-12 10:45 | 1.01589 | 105.15359 | 25565 ft | 442 kts | 110° |
| 2026-04-12 10:45 | 1.00609 | 105.18274 | 25814 ft | 443 kts | 110° |
| 2026-04-12 10:46 | 0.99638 | 105.21152 | 26058 ft | 444 kts | 110° |
| 2026-04-12 10:46 | 0.98649 | 105.24087 | 26302 ft | 446 kts | 109° |
| 2026-04-12 10:46 | 0.97661 | 105.27033 | 26533 ft | 448 kts | 109° |
| 2026-04-12 10:46 | 0.96671 | 105.29979 | 26762 ft | 449 kts | 109° |
| 2026-04-12 10:47 | 0.95674 | 105.32940 | 26992 ft | 450 kts | 109° |
| 2026-04-12 10:47 | 0.94676 | 105.35905 | 27222 ft | 452 kts | 109° |
| 2026-04-12 10:47 | 0.93671 | 105.38883 | 27497 ft | 452 kts | 109° |
| 2026-04-12 10:47 | 0.92668 | 105.41855 | 27839 ft | 451 kts | 109° |
| 2026-04-12 10:48 | 0.91679 | 105.44792 | 28178 ft | 450 kts | 109° |
| 2026-04-12 10:48 | 0.90684 | 105.47752 | 28521 ft | 449 kts | 109° |
| 2026-04-12 10:48 | 0.89692 | 105.50710 | 28870 ft | 448 kts | 109° |
| 2026-04-12 10:48 | 0.88702 | 105.53661 | 29220 ft | 448 kts | 109° |
| 2026-04-12 10:49 | 0.87712 | 105.56610 | 29579 ft | 447 kts | 109° |
| 2026-04-12 10:49 | 0.86724 | 105.59551 | 29937 ft | 446 kts | 109° |
| 2026-04-12 10:49 | 0.85735 | 105.62487 | 30247 ft | 446 kts | 109° |
| 2026-04-12 10:49 | 0.84748 | 105.65416 | 30552 ft | 445 kts | 109° |
| 2026-04-12 10:50 | 0.83763 | 105.68344 | 30869 ft | 444 kts | 109° |
| 2026-04-12 10:50 | 0.82792 | 105.71223 | 31177 ft | 443 kts | 109° |
| 2026-04-12 10:50 | 0.81807 | 105.74135 | 31498 ft | 442 kts | 109° |
| 2026-04-12 10:50 | 0.80824 | 105.77041 | 31821 ft | 441 kts | 109° |
| 2026-04-12 10:51 | 0.79841 | 105.79946 | 32143 ft | 441 kts | 109° |
| 2026-04-12 10:51 | 0.78865 | 105.82843 | 32460 ft | 440 kts | 109° |
| 2026-04-12 10:51 | 0.77890 | 105.85742 | 32781 ft | 439 kts | 109° |
| 2026-04-12 10:51 | 0.76922 | 105.88633 | 33097 ft | 439 kts | 109° |
| 2026-04-12 10:52 | 0.75956 | 105.91524 | 33401 ft | 438 kts | 109° |
| 2026-04-12 10:52 | 0.74989 | 105.94407 | 33702 ft | 437 kts | 109° |
| 2026-04-12 10:52 | 0.74034 | 105.97248 | 33972 ft | 437 kts | 110° |
| 2026-04-12 10:52 | 0.73063 | 106.00122 | 34217 ft | 436 kts | 110° |
| 2026-04-12 10:53 | 0.72091 | 106.02994 | 34465 ft | 436 kts | 110° |
| 2026-04-12 10:53 | 0.71125 | 106.05859 | 34707 ft | 435 kts | 110° |
| 2026-04-12 10:53 | 0.70160 | 106.08727 | 34839 ft | 436 kts | 110° |
| 2026-04-12 10:53 | 0.69191 | 106.11612 | 34879 ft | 440 kts | 109° |
| 2026-04-12 10:54 | 0.67213 | 106.17485 | 34875 ft | 451 kts | 110° |
| 2026-04-12 10:54 | 0.65217 | 106.23403 | 34877 ft | 454 kts | 109° |
| 2026-04-12 10:55 | 0.63206 | 106.29397 | 34872 ft | 455 kts | 109° |
| 2026-04-12 10:55 | 0.61189 | 106.35386 | 34874 ft | 455 kts | 110° |
| 2026-04-12 10:56 | 0.59178 | 106.41333 | 34875 ft | 455 kts | 110° |
| 2026-04-12 10:56 | 0.57154 | 106.47329 | 34879 ft | 455 kts | 110° |
| 2026-04-12 10:57 | 0.55136 | 106.53325 | 34882 ft | 456 kts | 110° |
| 2026-04-12 10:57 | 0.53114 | 106.59328 | 34882 ft | 456 kts | 109° |
| 2026-04-12 10:58 | 0.51109 | 106.65289 | 34882 ft | 456 kts | 110° |
| 2026-04-12 10:58 | 0.49085 | 106.71296 | 34882 ft | 456 kts | 110° |
| 2026-04-12 10:59 | 0.47065 | 106.77301 | 34882 ft | 456 kts | 109° |
| 2026-04-12 10:59 | 0.45048 | 106.83311 | 34884 ft | 456 kts | 109° |
| 2026-04-12 11:00 | 0.43024 | 106.89325 | 34885 ft | 456 kts | 110° |
| 2026-04-12 11:00 | 0.41281 | 106.95372 | 34885 ft | 457 kts | 102° |
| 2026-04-12 11:01 | 0.40027 | 107.01598 | 34882 ft | 458 kts | 102° |
| 2026-04-12 11:01 | 0.38770 | 107.07832 | 34881 ft | 458 kts | 102° |
| 2026-04-12 11:02 | 0.37510 | 107.14065 | 34883 ft | 458 kts | 102° |
| 2026-04-12 11:02 | 0.36272 | 107.20265 | 34885 ft | 458 kts | 102° |
| 2026-04-12 11:03 | 0.35015 | 107.26507 | 34882 ft | 458 kts | 102° |
| 2026-04-12 11:03 | 0.33754 | 107.32744 | 34897 ft | 458 kts | 102° |
| 2026-04-12 11:04 | 0.32496 | 107.38976 | 34883 ft | 458 kts | 102° |
| 2026-04-12 11:04 | 0.31237 | 107.45208 | 34887 ft | 458 kts | 102° |
| 2026-04-12 11:05 | 0.29992 | 107.51410 | 34885 ft | 458 kts | 102° |
| 2026-04-12 11:05 | 0.28727 | 107.57648 | 34885 ft | 458 kts | 102° |
| 2026-04-12 11:06 | 0.27468 | 107.63890 | 34885 ft | 458 kts | 102° |
| 2026-04-12 11:06 | 0.26210 | 107.70134 | 34884 ft | 459 kts | 102° |
| 2026-04-12 11:07 | 0.24965 | 107.76337 | 34881 ft | 459 kts | 102° |
| 2026-04-12 11:07 | 0.23707 | 107.82587 | 34880 ft | 459 kts | 102° |
| 2026-04-12 11:08 | 0.22440 | 107.88834 | 34879 ft | 459 kts | 102° |
| 2026-04-12 11:08 | 0.21178 | 107.95036 | 34886 ft | 459 kts | 102° |
| 2026-04-12 11:09 | 0.19916 | 108.01283 | 34888 ft | 459 kts | 102° |
| 2026-04-12 11:09 | 0.18665 | 108.07529 | 34890 ft | 458 kts | 102° |
| 2026-04-12 11:10 | 0.17408 | 108.13771 | 34888 ft | 458 kts | 102° |
| 2026-04-12 11:10 | 0.16146 | 108.20010 | 34888 ft | 458 kts | 102° |
| 2026-04-12 11:11 | 0.14887 | 108.26207 | 34886 ft | 458 kts | 102° |
| 2026-04-12 11:11 | 0.13627 | 108.32445 | 34888 ft | 458 kts | 102° |
| 2026-04-12 11:12 | 0.12377 | 108.38681 | 34889 ft | 458 kts | 102° |
| 2026-04-12 11:12 | 0.11122 | 108.44913 | 34889 ft | 457 kts | 102° |
| 2026-04-12 11:13 | 0.09874 | 108.51097 | 34888 ft | 457 kts | 102° |
| 2026-04-12 11:13 | 0.08624 | 108.57325 | 34891 ft | 457 kts | 102° |
| 2026-04-12 11:14 | 0.07365 | 108.63545 | 34890 ft | 457 kts | 102° |
| 2026-04-12 11:14 | 0.06103 | 108.69763 | 34890 ft | 457 kts | 102° |
| 2026-04-12 11:15 | 0.04858 | 108.75939 | 34893 ft | 456 kts | 102° |
| 2026-04-12 11:15 | 0.03606 | 108.82150 | 34889 ft | 456 kts | 102° |
| 2026-04-12 11:16 | 0.02350 | 108.88360 | 34891 ft | 456 kts | 102° |
| 2026-04-12 11:16 | 0.01097 | 108.94565 | 34888 ft | 456 kts | 102° |
| 2026-04-12 11:17 | -0.00141 | 109.00727 | 34891 ft | 455 kts | 102° |
| 2026-04-12 11:17 | -0.01429 | 109.06917 | 34884 ft | 455 kts | 103° |
| 2026-04-12 11:18 | -0.02754 | 109.13100 | 34883 ft | 455 kts | 103° |
| 2026-04-12 11:18 | -0.04073 | 109.19277 | 34877 ft | 455 kts | 103° |
| 2026-04-12 11:19 | -0.05371 | 109.25414 | 34875 ft | 455 kts | 103° |
| 2026-04-12 11:19 | -0.06666 | 109.31597 | 34874 ft | 455 kts | 103° |
| 2026-04-12 11:20 | -0.07970 | 109.37778 | 34876 ft | 455 kts | 102° |
| 2026-04-12 11:20 | -0.09137 | 109.43993 | 34873 ft | 455 kts | 100° |
| 2026-04-12 11:21 | -0.10169 | 109.50232 | 34874 ft | 455 kts | 100° |
| 2026-04-12 11:21 | -0.11207 | 109.56429 | 34869 ft | 455 kts | 101° |
| 2026-04-12 11:22 | -0.12293 | 109.62659 | 34867 ft | 455 kts | 101° |
| 2026-04-12 11:22 | -0.13389 | 109.68887 | 34865 ft | 455 kts | 101° |
| 2026-04-12 11:23 | -0.14473 | 109.75118 | 34862 ft | 455 kts | 101° |
| 2026-04-12 11:23 | -0.15550 | 109.81308 | 34861 ft | 455 kts | 101° |
| 2026-04-12 11:24 | -0.16636 | 109.87535 | 34865 ft | 455 kts | 101° |
| 2026-04-12 11:24 | -0.17724 | 109.93768 | 34862 ft | 455 kts | 101° |
| 2026-04-12 11:25 | -0.18804 | 109.99990 | 34863 ft | 455 kts | 101° |
| 2026-04-12 11:25 | -0.19886 | 110.06224 | 34861 ft | 455 kts | 101° |
| 2026-04-12 11:26 | -0.20972 | 110.12415 | 34864 ft | 455 kts | 101° |
| 2026-04-12 11:26 | -0.22065 | 110.18652 | 34864 ft | 455 kts | 101° |
| 2026-04-12 11:27 | -0.23148 | 110.24885 | 34869 ft | 456 kts | 101° |
| 2026-04-12 11:27 | -0.24236 | 110.31115 | 34868 ft | 456 kts | 101° |
| 2026-04-12 11:28 | -0.25316 | 110.37310 | 34868 ft | 456 kts | 101° |
| 2026-04-12 11:28 | -0.26402 | 110.43546 | 34874 ft | 456 kts | 101° |
| 2026-04-12 11:29 | -0.27489 | 110.49785 | 34875 ft | 456 kts | 101° |
| 2026-04-12 11:29 | -0.28579 | 110.56022 | 34877 ft | 456 kts | 101° |
| 2026-04-12 11:30 | -0.29656 | 110.62218 | 34880 ft | 456 kts | 101° |
| 2026-04-12 11:30 | -0.30739 | 110.68457 | 34886 ft | 456 kts | 101° |
| 2026-04-12 11:31 | -0.31831 | 110.74684 | 34887 ft | 455 kts | 101° |
| 2026-04-12 11:31 | -0.32914 | 110.80919 | 34891 ft | 455 kts | 101° |
| 2026-04-12 11:32 | -0.34001 | 110.87153 | 34893 ft | 455 kts | 101° |
| 2026-04-12 11:32 | -0.35090 | 110.93350 | 34900 ft | 455 kts | 101° |
| 2026-04-12 11:33 | -0.36175 | 110.99578 | 34900 ft | 455 kts | 101° |
| 2026-04-12 11:33 | -0.37258 | 111.05806 | 34905 ft | 455 kts | 100° |
| 2026-04-12 11:34 | -0.38336 | 111.12032 | 34904 ft | 455 kts | 100° |
| 2026-04-12 11:34 | -0.39240 | 111.18283 | 34904 ft | 455 kts | 98° |
| 2026-04-12 11:35 | -0.39965 | 111.24516 | 34908 ft | 455 kts | 97° |
| 2026-04-12 11:35 | -0.40704 | 111.30786 | 34903 ft | 454 kts | 98° |
| 2026-04-12 11:36 | -0.41486 | 111.37054 | 34906 ft | 454 kts | 98° |
| 2026-04-12 11:36 | -0.42288 | 111.43312 | 34901 ft | 454 kts | 98° |
| 2026-04-12 11:37 | -0.43080 | 111.49533 | 34899 ft | 454 kts | 98° |
| 2026-04-12 11:37 | -0.43877 | 111.55794 | 34898 ft | 454 kts | 98° |
| 2026-04-12 11:38 | -0.44667 | 111.62060 | 34898 ft | 455 kts | 98° |
| 2026-04-12 11:38 | -0.45459 | 111.68328 | 34898 ft | 455 kts | 98° |
| 2026-04-12 11:39 | -0.46256 | 111.74594 | 34897 ft | 455 kts | 98° |
| 2026-04-12 11:39 | -0.47042 | 111.80823 | 34907 ft | 455 kts | 98° |
| 2026-04-12 11:40 | -0.47833 | 111.87089 | 34910 ft | 454 kts | 97° |
| 2026-04-12 11:40 | -0.48628 | 111.93350 | 34915 ft | 454 kts | 98° |
| 2026-04-12 11:41 | -0.49424 | 111.99608 | 34914 ft | 454 kts | 97° |
| 2026-04-12 11:41 | -0.50209 | 112.05821 | 34914 ft | 454 kts | 97° |
| 2026-04-12 11:42 | -0.51000 | 112.12076 | 34920 ft | 454 kts | 98° |
| 2026-04-12 11:43 | -0.52190 | 112.21459 | 34918 ft | 454 kts | 97° |
| 2026-04-12 11:43 | -0.52899 | 112.27725 | 34915 ft | 454 kts | 92° |
| 2026-04-12 11:44 | -0.52333 | 112.33960 | 34918 ft | 455 kts | 83° |
| 2026-04-12 11:44 | -0.51480 | 112.40222 | 34916 ft | 455 kts | 83° |
| 2026-04-12 11:45 | -0.50643 | 112.46493 | 34916 ft | 455 kts | 83° |
| 2026-04-12 11:45 | -0.49792 | 112.52762 | 34920 ft | 456 kts | 83° |
| 2026-04-12 11:46 | -0.48940 | 112.58995 | 34918 ft | 456 kts | 83° |
| 2026-04-12 11:46 | -0.48080 | 112.65270 | 34920 ft | 456 kts | 83° |
| 2026-04-12 11:47 | -0.47225 | 112.71551 | 34919 ft | 456 kts | 83° |
| 2026-04-12 11:47 | -0.46377 | 112.77838 | 34924 ft | 457 kts | 83° |
| 2026-04-12 11:48 | -0.45521 | 112.84123 | 34923 ft | 457 kts | 83° |
| 2026-04-12 11:48 | -0.44665 | 112.90373 | 34927 ft | 457 kts | 83° |
| 2026-04-12 11:49 | -0.43808 | 112.96668 | 34924 ft | 457 kts | 83° |
| 2026-04-12 11:49 | -0.42957 | 113.02966 | 34924 ft | 458 kts | 83° |
| 2026-04-12 11:50 | -0.42099 | 113.09266 | 34929 ft | 458 kts | 83° |
| 2026-04-12 11:50 | -0.41251 | 113.15523 | 34930 ft | 458 kts | 83° |
| 2026-04-12 11:51 | -0.40393 | 113.21829 | 34933 ft | 458 kts | 83° |
| 2026-04-12 11:51 | -0.39533 | 113.28132 | 34937 ft | 458 kts | 83° |
| 2026-04-12 11:52 | -0.38672 | 113.34434 | 34937 ft | 458 kts | 83° |
| 2026-04-12 11:52 | -0.37819 | 113.40696 | 34934 ft | 458 kts | 83° |
| 2026-04-12 11:53 | -0.36962 | 113.47006 | 34931 ft | 458 kts | 83° |
| 2026-04-12 11:53 | -0.36101 | 113.53317 | 34930 ft | 459 kts | 83° |
| 2026-04-12 11:54 | -0.35239 | 113.59634 | 34927 ft | 459 kts | 83° |
| 2026-04-12 11:54 | -0.34387 | 113.65909 | 34924 ft | 459 kts | 83° |
| 2026-04-12 11:55 | -0.33526 | 113.72231 | 34923 ft | 459 kts | 83° |
| 2026-04-12 11:55 | -0.32668 | 113.78561 | 34924 ft | 460 kts | 83° |
| 2026-04-12 11:56 | -0.31802 | 113.84890 | 34920 ft | 460 kts | 83° |
| 2026-04-12 11:56 | -0.30944 | 113.91182 | 34921 ft | 460 kts | 83° |
| 2026-04-12 11:57 | -0.30081 | 113.97523 | 34919 ft | 461 kts | 83° |
| 2026-04-12 11:57 | -0.29224 | 114.03869 | 34924 ft | 461 kts | 83° |
| 2026-04-12 11:58 | -0.28364 | 114.10219 | 34925 ft | 461 kts | 82° |
| 2026-04-12 11:58 | -0.27498 | 114.16531 | 34923 ft | 462 kts | 82° |
| 2026-04-12 11:59 | -0.26629 | 114.22888 | 34924 ft | 462 kts | 82° |
| 2026-04-12 11:59 | -0.25767 | 114.29257 | 34924 ft | 463 kts | 82° |
| 2026-04-12 12:00 | -0.24895 | 114.35630 | 34923 ft | 463 kts | 82° |
| 2026-04-12 12:00 | -0.24033 | 114.41966 | 34926 ft | 463 kts | 82° |
| 2026-04-12 12:01 | -0.23168 | 114.48348 | 34924 ft | 464 kts | 82° |
| 2026-04-12 12:01 | -0.22305 | 114.54732 | 34926 ft | 464 kts | 82° |
| 2026-04-12 12:02 | -0.21434 | 114.61121 | 34927 ft | 464 kts | 82° |
| 2026-04-12 12:02 | -0.20703 | 114.66429 | 34927 ft | 464 kts | 82° |
| 2026-04-12 12:03 | -0.19690 | 114.73855 | 34927 ft | 464 kts | 82° |
| 2026-04-12 12:03 | -0.18823 | 114.80249 | 34926 ft | 464 kts | 82° |
| 2026-04-12 12:04 | -0.18101 | 114.85564 | 34919 ft | 465 kts | 82° |
| 2026-04-12 12:04 | -0.17227 | 114.91956 | 34917 ft | 465 kts | 82° |
| 2026-04-12 12:05 | -0.16207 | 114.99389 | 34922 ft | 465 kts | 82° |
| 2026-04-12 12:05 | -0.15338 | 115.05789 | 34921 ft | 465 kts | 82° |
| 2026-04-12 12:06 | -0.14468 | 115.12191 | 34923 ft | 465 kts | 82° |
| 2026-04-12 12:06 | -0.13744 | 115.17510 | 34918 ft | 465 kts | 82° |
| 2026-04-12 12:07 | -0.12726 | 115.24949 | 34918 ft | 465 kts | 82° |
| 2026-04-12 12:07 | -0.11851 | 115.31351 | 34920 ft | 465 kts | 82° |
| 2026-04-12 12:08 | -0.11123 | 115.36675 | 34915 ft | 465 kts | 82° |
| 2026-04-12 12:08 | -0.10104 | 115.44160 | 34916 ft | 465 kts | 82° |
| 2026-04-12 12:09 | -0.09380 | 115.49489 | 34917 ft | 465 kts | 82° |
| 2026-04-12 12:09 | -0.08513 | 115.55894 | 34918 ft | 465 kts | 82° |
| 2026-04-12 12:10 | -0.07640 | 115.62255 | 34916 ft | 465 kts | 82° |
| 2026-04-12 12:10 | -0.06757 | 115.68659 | 34917 ft | 465 kts | 82° |
| 2026-04-12 12:11 | -0.05890 | 115.75066 | 34917 ft | 465 kts | 82° |
| 2026-04-12 12:11 | -0.05021 | 115.81471 | 34915 ft | 465 kts | 82° |
| 2026-04-12 12:12 | -0.04152 | 115.87829 | 34912 ft | 465 kts | 82° |
| 2026-04-12 12:12 | -0.03276 | 115.94236 | 34913 ft | 465 kts | 82° |
| 2026-04-12 12:13 | -0.02404 | 116.00645 | 34912 ft | 466 kts | 82° |
| 2026-04-12 12:13 | -0.01536 | 116.07057 | 34911 ft | 466 kts | 82° |
| 2026-04-12 12:14 | -0.00662 | 116.13474 | 34909 ft | 466 kts | 82° |
| 2026-04-12 12:14 | 0.00209 | 116.19847 | 34911 ft | 466 kts | 82° |
| 2026-04-12 12:15 | 0.01093 | 116.26266 | 34907 ft | 466 kts | 82° |
| 2026-04-12 12:15 | 0.01971 | 116.32686 | 34910 ft | 466 kts | 82° |
| 2026-04-12 12:16 | 0.02842 | 116.39107 | 34913 ft | 467 kts | 82° |
| 2026-04-12 12:16 | 0.03705 | 116.45486 | 34912 ft | 467 kts | 82° |
| 2026-04-12 12:17 | 0.04580 | 116.51909 | 34916 ft | 467 kts | 82° |
| 2026-04-12 12:17 | 0.05459 | 116.58322 | 34916 ft | 467 kts | 82° |
| 2026-04-12 12:18 | 0.06335 | 116.64746 | 34918 ft | 467 kts | 82° |
| 2026-04-12 12:18 | 0.07200 | 116.71131 | 34915 ft | 467 kts | 82° |
| 2026-04-12 12:19 | 0.08080 | 116.77566 | 34914 ft | 467 kts | 82° |
| 2026-04-12 12:19 | 0.08960 | 116.83997 | 34916 ft | 467 kts | 82° |
| 2026-04-12 12:20 | 0.09831 | 116.90387 | 34922 ft | 467 kts | 82° |
| 2026-04-12 12:20 | 0.10702 | 116.96822 | 34922 ft | 467 kts | 82° |
| 2026-04-12 12:21 | 0.11569 | 117.03258 | 34923 ft | 468 kts | 82° |
| 2026-04-12 12:21 | 0.12446 | 117.09694 | 34922 ft | 468 kts | 82° |
| 2026-04-12 12:22 | 0.13326 | 117.16089 | 34928 ft | 468 kts | 82° |
| 2026-04-12 12:22 | 0.14209 | 117.22532 | 34931 ft | 468 kts | 82° |
| 2026-04-12 12:23 | 0.15086 | 117.28977 | 34934 ft | 468 kts | 82° |
| 2026-04-12 12:23 | 0.15972 | 117.35420 | 34932 ft | 468 kts | 82° |
| 2026-04-12 12:24 | 0.16851 | 117.41867 | 34929 ft | 468 kts | 82° |
| 2026-04-12 12:24 | 0.17719 | 117.48273 | 34934 ft | 468 kts | 82° |
| 2026-04-12 12:25 | 0.18596 | 117.54718 | 34933 ft | 468 kts | 82° |
| 2026-04-12 12:25 | 0.19481 | 117.61171 | 34930 ft | 469 kts | 82° |
| 2026-04-12 12:26 | 0.20356 | 117.67578 | 34930 ft | 469 kts | 82° |
| 2026-04-12 12:26 | 0.21228 | 117.74032 | 34929 ft | 469 kts | 82° |
| 2026-04-12 12:27 | 0.22108 | 117.80485 | 34934 ft | 469 kts | 82° |
| 2026-04-12 12:27 | 0.22989 | 117.86942 | 34934 ft | 469 kts | 82° |
| 2026-04-12 12:28 | 0.23867 | 117.93351 | 34939 ft | 469 kts | 82° |
| 2026-04-12 12:28 | 0.24742 | 117.99804 | 34940 ft | 469 kts | 82° |
| 2026-04-12 12:29 | 0.25617 | 118.06261 | 34939 ft | 469 kts | 82° |
| 2026-04-12 12:29 | 0.26499 | 118.12713 | 34941 ft | 469 kts | 82° |
| 2026-04-12 12:30 | 0.27379 | 118.19118 | 34944 ft | 469 kts | 82° |
| 2026-04-12 12:30 | 0.28257 | 118.25569 | 34944 ft | 468 kts | 82° |
| 2026-04-12 12:31 | 0.29127 | 118.32017 | 34944 ft | 468 kts | 82° |
| 2026-04-12 12:31 | 0.30007 | 118.38459 | 34944 ft | 468 kts | 82° |
| 2026-04-12 12:32 | 0.30884 | 118.44854 | 34945 ft | 468 kts | 82° |
| 2026-04-12 12:32 | 0.31622 | 118.50244 | 34945 ft | 467 kts | 82° |
| 2026-04-12 12:33 | 0.32641 | 118.57722 | 34944 ft | 467 kts | 82° |
| 2026-04-12 12:33 | 0.33507 | 118.64158 | 34943 ft | 467 kts | 82° |
| 2026-04-12 12:34 | 0.34387 | 118.70588 | 34944 ft | 467 kts | 82° |
| 2026-04-12 12:34 | 0.35261 | 118.76984 | 34945 ft | 468 kts | 82° |
| 2026-04-12 12:35 | 0.36131 | 118.83418 | 34945 ft | 468 kts | 82° |
| 2026-04-12 12:35 | 0.37011 | 118.89857 | 34941 ft | 468 kts | 82° |
| 2026-04-12 12:36 | 0.37890 | 118.96299 | 34941 ft | 468 kts | 82° |
| 2026-04-12 12:36 | 0.38759 | 119.02697 | 34944 ft | 468 kts | 82° |
| 2026-04-12 12:37 | 0.39635 | 119.09143 | 34943 ft | 468 kts | 82° |
| 2026-04-12 12:37 | 0.40518 | 119.15586 | 34947 ft | 468 kts | 82° |
| 2026-04-12 12:38 | 0.41375 | 119.22037 | 34943 ft | 468 kts | 82° |
| 2026-04-12 12:38 | 0.42185 | 119.28449 | 34944 ft | 468 kts | 82° |
| 2026-04-12 12:39 | 0.43004 | 119.34909 | 34946 ft | 469 kts | 82° |
| 2026-04-12 12:39 | 0.43833 | 119.41366 | 34945 ft | 469 kts | 82° |
| 2026-04-12 12:40 | 0.44657 | 119.47828 | 34948 ft | 469 kts | 82° |
| 2026-04-12 12:40 | 0.45478 | 119.54245 | 34950 ft | 469 kts | 82° |
| 2026-04-12 12:41 | 0.46301 | 119.60702 | 34952 ft | 469 kts | 82° |
| 2026-04-12 12:41 | 0.47123 | 119.67160 | 34953 ft | 468 kts | 82° |
| 2026-04-12 12:42 | 0.47948 | 119.73616 | 34956 ft | 468 kts | 82° |
| 2026-04-12 12:42 | 0.49191 | 119.83254 | 34959 ft | 468 kts | 82° |
| 2026-04-12 12:43 | 0.50015 | 119.89708 | 34965 ft | 469 kts | 82° |
| 2026-04-12 12:43 | 0.50843 | 119.96169 | 34973 ft | 469 kts | 82° |
| 2026-04-12 12:44 | 0.51670 | 120.02626 | 34972 ft | 469 kts | 82° |
| 2026-04-12 12:44 | 0.52493 | 120.09046 | 34974 ft | 469 kts | 82° |
| 2026-04-12 12:45 | 0.53315 | 120.15513 | 34974 ft | 469 kts | 82° |
| 2026-04-12 12:45 | 0.54144 | 120.21980 | 34973 ft | 469 kts | 82° |
| 2026-04-12 12:46 | 0.54968 | 120.28452 | 34972 ft | 470 kts | 82° |
| 2026-04-12 12:46 | 0.55789 | 120.34883 | 34971 ft | 470 kts | 82° |
| 2026-04-12 12:47 | 0.56611 | 120.41366 | 34966 ft | 471 kts | 82° |
| 2026-04-12 12:47 | 0.57448 | 120.47856 | 34969 ft | 471 kts | 82° |
| 2026-04-12 12:48 | 0.58285 | 120.54354 | 34971 ft | 472 kts | 82° |
| 2026-04-12 12:48 | 0.59123 | 120.60861 | 34970 ft | 472 kts | 82° |
| 2026-04-12 12:49 | 0.59946 | 120.67330 | 34968 ft | 473 kts | 82° |
| 2026-04-12 12:49 | 0.60773 | 120.73849 | 34964 ft | 473 kts | 82° |
| 2026-04-12 12:50 | 0.61610 | 120.80363 | 34970 ft | 473 kts | 82° |
| 2026-04-12 12:50 | 0.62446 | 120.86884 | 34972 ft | 473 kts | 82° |
| 2026-04-12 12:51 | 0.63273 | 120.93404 | 34977 ft | 473 kts | 82° |
| 2026-04-12 12:51 | 0.64093 | 120.99886 | 34979 ft | 474 kts | 82° |
| 2026-04-12 12:52 | 0.64940 | 121.06414 | 34983 ft | 474 kts | 82° |
| 2026-04-12 12:52 | 0.65778 | 121.12943 | 34989 ft | 474 kts | 82° |
| 2026-04-12 12:53 | 0.66610 | 121.19469 | 34990 ft | 474 kts | 82° |
| 2026-04-12 12:53 | 0.67439 | 121.25951 | 34992 ft | 473 kts | 82° |
| 2026-04-12 12:54 | 0.68267 | 121.32477 | 34990 ft | 473 kts | 82° |
| 2026-04-12 12:54 | 0.69095 | 121.38997 | 34994 ft | 473 kts | 82° |
| 2026-04-12 12:55 | 0.69928 | 121.45513 | 34994 ft | 473 kts | 82° |
| 2026-04-12 12:55 | 0.70767 | 121.52023 | 34992 ft | 472 kts | 82° |
| 2026-04-12 12:56 | 0.71592 | 121.58490 | 34990 ft | 472 kts | 82° |
| 2026-04-12 12:56 | 0.72420 | 121.64992 | 34987 ft | 472 kts | 82° |
| 2026-04-12 12:57 | 0.73249 | 121.71505 | 34987 ft | 472 kts | 82° |
| 2026-04-12 12:57 | 0.74076 | 121.77997 | 34992 ft | 472 kts | 82° |
| 2026-04-12 12:58 | 0.74907 | 121.84502 | 34987 ft | 472 kts | 82° |
| 2026-04-12 12:58 | 0.75730 | 121.90971 | 34988 ft | 472 kts | 82° |
| 2026-04-12 12:59 | 0.76561 | 121.97472 | 34988 ft | 472 kts | 82° |
| 2026-04-12 12:59 | 0.77399 | 122.03972 | 34988 ft | 472 kts | 82° |
| 2026-04-12 13:00 | 0.78230 | 122.10478 | 34985 ft | 472 kts | 82° |
| 2026-04-12 13:00 | 0.79050 | 122.16946 | 34982 ft | 472 kts | 82° |
| 2026-04-12 13:01 | 0.79878 | 122.23455 | 34980 ft | 472 kts | 82° |
| 2026-04-12 13:01 | 0.80711 | 122.29962 | 34984 ft | 472 kts | 82° |
| 2026-04-12 13:02 | 0.81538 | 122.36466 | 34983 ft | 472 kts | 82° |
| 2026-04-12 13:02 | 0.82364 | 122.42974 | 34979 ft | 472 kts | 82° |
| 2026-04-12 13:03 | 0.83192 | 122.49430 | 34981 ft | 472 kts | 82° |
| 2026-04-12 13:03 | 0.84024 | 122.55933 | 34971 ft | 472 kts | 82° |
| 2026-04-12 13:04 | 0.84850 | 122.62437 | 34967 ft | 472 kts | 82° |
| 2026-04-12 13:04 | 0.85678 | 122.68945 | 34968 ft | 472 kts | 82° |
| 2026-04-12 13:05 | 0.86499 | 122.75418 | 34968 ft | 473 kts | 82° |
| 2026-04-12 13:05 | 0.87327 | 122.81940 | 34963 ft | 473 kts | 82° |
| 2026-04-12 13:06 | 0.88164 | 122.88461 | 34965 ft | 474 kts | 82° |
| 2026-04-12 13:06 | 0.88997 | 122.94990 | 34964 ft | 474 kts | 82° |
| 2026-04-12 13:07 | 0.89829 | 123.01525 | 34965 ft | 474 kts | 82° |
| 2026-04-12 13:07 | 0.90649 | 123.08012 | 34966 ft | 474 kts | 82° |
| 2026-04-12 13:08 | 0.91060 | 123.11291 | 34769 ft | 475 kts | 82° |
| 2026-04-12 13:08 | 0.91470 | 123.14557 | 34536 ft | 475 kts | 82° |
| 2026-04-12 13:08 | 0.91885 | 123.17842 | 33745 ft | 480 kts | 82° |
| 2026-04-12 13:08 | 0.92307 | 123.21175 | 32728 ft | 486 kts | 82° |
| 2026-04-12 13:09 | 0.92735 | 123.24534 | 31820 ft | 489 kts | 82° |
| 2026-04-12 13:09 | 0.93166 | 123.27893 | 31245 ft | 484 kts | 82° |
| 2026-04-12 13:09 | 0.93590 | 123.31168 | 30657 ft | 480 kts | 82° |
| 2026-04-12 13:09 | 0.94111 | 123.34450 | 30068 ft | 476 kts | 76° |
| 2026-04-12 13:10 | 0.94862 | 123.37657 | 29418 ft | 472 kts | 76° |
| 2026-04-12 13:10 | 0.95608 | 123.40831 | 28840 ft | 467 kts | 76° |
| 2026-04-12 13:10 | 0.96343 | 123.43972 | 28258 ft | 462 kts | 76° |
| 2026-04-12 13:10 | 0.97071 | 123.47079 | 27683 ft | 457 kts | 76° |
| 2026-04-12 13:11 | 0.97794 | 123.50156 | 27115 ft | 453 kts | 76° |
| 2026-04-12 13:11 | 0.98510 | 123.53198 | 26553 ft | 449 kts | 76° |
| 2026-04-12 13:11 | 0.99220 | 123.56223 | 25996 ft | 445 kts | 76° |
| 2026-04-12 13:11 | 0.99917 | 123.59183 | 25459 ft | 442 kts | 76° |
| 2026-04-12 13:12 | 1.00617 | 123.62159 | 24926 ft | 438 kts | 76° |
| 2026-04-12 13:12 | 1.01309 | 123.65111 | 24414 ft | 435 kts | 76° |
| 2026-04-12 13:12 | 1.01995 | 123.68040 | 23906 ft | 431 kts | 76° |
| 2026-04-12 13:12 | 1.02675 | 123.70948 | 23405 ft | 428 kts | 76° |
| 2026-04-12 13:13 | 1.03349 | 123.73833 | 22887 ft | 424 kts | 76° |
| 2026-04-12 13:13 | 1.04019 | 123.76687 | 22417 ft | 420 kts | 76° |
| 2026-04-12 13:13 | 1.04682 | 123.79517 | 21940 ft | 417 kts | 76° |
| 2026-04-12 13:13 | 1.05334 | 123.82286 | 21502 ft | 413 kts | 76° |
| 2026-04-12 13:14 | 1.05992 | 123.85070 | 21077 ft | 410 kts | 76° |
| 2026-04-12 13:14 | 1.06642 | 123.87828 | 20649 ft | 407 kts | 76° |
| 2026-04-12 13:14 | 1.07289 | 123.90569 | 20223 ft | 404 kts | 76° |
| 2026-04-12 13:14 | 1.07931 | 123.93293 | 19809 ft | 400 kts | 76° |
| 2026-04-12 13:15 | 1.08565 | 123.95983 | 19391 ft | 397 kts | 76° |
| 2026-04-12 13:15 | 1.09196 | 123.98655 | 18965 ft | 393 kts | 76° |
| 2026-04-12 13:15 | 1.09821 | 124.01302 | 18565 ft | 390 kts | 76° |
| 2026-04-12 13:15 | 1.10439 | 124.03929 | 18151 ft | 387 kts | 76° |
| 2026-04-12 13:16 | 1.11050 | 124.06541 | 17715 ft | 385 kts | 76° |
| 2026-04-12 13:16 | 1.11648 | 124.09101 | 17311 ft | 382 kts | 76° |
| 2026-04-12 13:16 | 1.12253 | 124.11679 | 16917 ft | 380 kts | 76° |
| 2026-04-12 13:16 | 1.12859 | 124.14240 | 16520 ft | 378 kts | 76° |
| 2026-04-12 13:17 | 1.13463 | 124.16784 | 16133 ft | 375 kts | 76° |
| 2026-04-12 13:17 | 1.14061 | 124.19310 | 15740 ft | 373 kts | 76° |
| 2026-04-12 13:17 | 1.14652 | 124.21824 | 15353 ft | 371 kts | 76° |
| 2026-04-12 13:17 | 1.15238 | 124.24330 | 14971 ft | 368 kts | 76° |
| 2026-04-12 13:18 | 1.15818 | 124.26807 | 14586 ft | 366 kts | 76° |
| 2026-04-12 13:18 | 1.16391 | 124.29253 | 14210 ft | 364 kts | 76° |
| 2026-04-12 13:18 | 1.17540 | 124.34144 | 13419 ft | 359 kts | 76° |
| 2026-04-12 13:19 | 1.18109 | 124.36565 | 13046 ft | 358 kts | 76° |
| 2026-04-12 13:19 | 1.18679 | 124.38979 | 12677 ft | 356 kts | 76° |
| 2026-04-12 13:19 | 1.19246 | 124.41381 | 12304 ft | 354 kts | 76° |
| 2026-04-12 13:19 | 1.19808 | 124.43770 | 11934 ft | 352 kts | 76° |
| 2026-04-12 13:20 | 1.20366 | 124.46147 | 11566 ft | 350 kts | 76° |
| 2026-04-12 13:20 | 1.20911 | 124.48482 | 11208 ft | 349 kts | 76° |
| 2026-04-12 13:20 | 1.21461 | 124.50836 | 10845 ft | 347 kts | 76° |
| 2026-04-12 13:20 | 1.22011 | 124.53178 | 10483 ft | 345 kts | 76° |
| 2026-04-12 13:21 | 1.22552 | 124.55483 | 10308 ft | 335 kts | 76° |
| 2026-04-12 13:21 | 1.23057 | 124.57716 | 10194 ft | 324 kts | 77° |
| 2026-04-12 13:21 | 1.23518 | 124.59883 | 10063 ft | 314 kts | 77° |
| 2026-04-12 13:21 | 1.23954 | 124.62003 | 9874 ft | 308 kts | 77° |
| 2026-04-12 13:22 | 1.24382 | 124.64100 | 9564 ft | 307 kts | 77° |
| 2026-04-12 13:22 | 1.24810 | 124.66183 | 9261 ft | 305 kts | 77° |
| 2026-04-12 13:22 | 1.25231 | 124.68219 | 8965 ft | 303 kts | 77° |
| 2026-04-12 13:22 | 1.25658 | 124.70275 | 8674 ft | 301 kts | 77° |
| 2026-04-12 13:23 | 1.26085 | 124.72320 | 8374 ft | 300 kts | 77° |
| 2026-04-12 13:23 | 1.26507 | 124.74353 | 8082 ft | 298 kts | 79° |
| 2026-04-12 13:23 | 1.26668 | 124.76424 | 7573 ft | 304 kts | 88° |
| 2026-04-12 13:23 | 1.26712 | 124.78544 | 7267 ft | 302 kts | 89° |
| 2026-04-12 13:24 | 1.26742 | 124.80623 | 6842 ft | 298 kts | 89° |
| 2026-04-12 13:24 | 1.26767 | 124.82706 | 6170 ft | 299 kts | 89° |
| 2026-04-12 13:24 | 1.26793 | 124.84742 | 5910 ft | 284 kts | 89° |
| 2026-04-12 13:24 | 1.26819 | 124.86620 | 5776 ft | 265 kts | 89° |
| 2026-04-12 13:25 | 1.26944 | 124.88381 | 5657 ft | 245 kts | 75° |
| 2026-04-12 13:25 | 1.27602 | 124.89892 | 5597 ft | 231 kts | 53° |
| 2026-04-12 13:25 | 1.28683 | 124.91014 | 5457 ft | 220 kts | 33° |
| 2026-04-12 13:25 | 1.30016 | 124.91674 | 5255 ft | 210 kts | 14° |
| 2026-04-12 13:26 | 1.31445 | 124.91858 | 4979 ft | 205 kts | 359° |
| 2026-04-12 13:26 | 1.32859 | 124.91903 | 4701 ft | 202 kts | 360° |
| 2026-04-12 13:26 | 1.34261 | 124.91949 | 4426 ft | 201 kts | 0° |
| 2026-04-12 13:26 | 1.35619 | 124.91994 | 4139 ft | 193 kts | 360° |
| 2026-04-12 13:27 | 1.36927 | 124.92038 | 3875 ft | 183 kts | 0° |
| 2026-04-12 13:27 | 1.38165 | 124.92079 | 3616 ft | 173 kts | 0° |
| 2026-04-12 13:27 | 1.39321 | 124.92118 | 3414 ft | 162 kts | 0° |
| 2026-04-12 13:27 | 1.40426 | 124.92154 | 3184 ft | 157 kts | 0° |
| 2026-04-12 13:28 | 1.41149 | 124.92178 | 3036 ft | 156 kts | 0° |
| 2026-04-12 13:28 | 1.42595 | 124.92226 | 2740 ft | 155 kts | 0° |
| 2026-04-12 13:28 | 1.43671 | 124.92261 | 2516 ft | 154 kts | 1° |
| 2026-04-12 13:28 | 1.44743 | 124.92297 | 2302 ft | 154 kts | 1° |
| 2026-04-12 13:29 | 1.45812 | 124.92332 | 2087 ft | 153 kts | 1° |
| 2026-04-12 13:29 | 1.46862 | 124.92367 | 1873 ft | 153 kts | 1° |
| 2026-04-12 13:29 | 1.47925 | 124.92402 | 1656 ft | 153 kts | 2° |
| 2026-04-12 13:29 | 1.48985 | 124.92437 | 1431 ft | 152 kts | 2° |
| 2026-04-12 13:30 | 1.50040 | 124.92471 | 1187 ft | 151 kts | 1° |
| 2026-04-12 13:30 | 1.51087 | 124.92508 | 969 ft | 150 kts | 2° |
| 2026-04-12 13:30 | 1.52132 | 124.92534 | 736 ft | 150 kts | 1° |
| 2026-04-12 13:30 | 1.53170 | 124.92571 | 513 ft | 149 kts | 2° |
| 2026-04-12 13:31 | 1.54204 | 124.92607 | 349 ft | 145 kts | 1° |
| 2026-04-12 13:31 | 1.55089 | 124.92636 | 337 ft | 105 kts | 2° |
| 2026-04-12 13:31 | 1.55643 | 124.92654 | 335 ft | 57 kts | 2° |
| 2026-04-12 13:31 | 1.55883 | 124.92661 | 337 ft | 24 kts | 2° |
| 2026-04-12 13:32 | 1.56039 | 124.92667 | 336 ft | 19 kts | 2° |
| 2026-04-12 13:32 | 1.56102 | 124.92656 | 334 ft | 0 kts | 328° |
| 2026-04-12 13:33 | 1.56107 | 124.92646 | 331 ft | 2 kts | 296° |
| 2026-04-12 13:33 | 1.56116 | 124.92617 | 334 ft | 6 kts | 283° |
| 2026-04-12 13:33 | 1.56119 | 124.92570 | 334 ft | 8 kts | 270° |
| 2026-04-12 13:34 | 1.56103 | 124.92513 | 334 ft | 9 kts | 226° |
| 2026-04-12 13:34 | 1.56032 | 124.92503 | 336 ft | 12 kts | 181° |
| 2026-04-12 13:34 | 1.55943 | 124.92501 | 336 ft | 14 kts | 181° |
| 2026-04-12 13:34 | 1.55836 | 124.92497 | 336 ft | 17 kts | 182° |
| 2026-04-12 13:35 | 1.55716 | 124.92493 | 336 ft | 18 kts | 182° |
| 2026-04-12 13:35 | 1.55580 | 124.92488 | 336 ft | 21 kts | 182° |
| 2026-04-12 13:35 | 1.55425 | 124.92484 | 336 ft | 23 kts | 181° |
| 2026-04-12 13:35 | 1.55257 | 124.92478 | 336 ft | 26 kts | 182° |
| 2026-04-12 13:36 | 1.55095 | 124.92472 | 336 ft | 21 kts | 182° |
| 2026-04-12 13:36 | 1.54942 | 124.92467 | 334 ft | 23 kts | 181° |
| 2026-04-12 13:36 | 1.54773 | 124.92462 | 334 ft | 25 kts | 181° |
| 2026-04-12 13:36 | 1.54590 | 124.92455 | 335 ft | 27 kts | 182° |
| 2026-04-12 13:37 | 1.54498 | 124.92451 | 336 ft | 5 kts | 182° |
| 2026-04-12 13:37 | 1.54457 | 124.92450 | 336 ft | 6 kts | 182° |
| 2026-04-12 13:37 | 1.54438 | 124.92448 | 333 ft | 1 kts | 189° |
| 2026-04-12 13:37 | 1.54433 | 124.92447 | 336 ft | 2 kts | 191° |
| 2026-04-12 13:38 | 1.54415 | 124.92442 | 334 ft | 4 kts | 194° |
| 2026-04-12 13:38 | 1.54397 | 124.92419 | 336 ft | 5 kts | 258° |
| 2026-04-12 13:38 | 1.54397 | 124.92373 | 336 ft | 8 kts | 272° |
| 2026-04-12 13:38 | 1.54398 | 124.92347 | 336 ft | 2 kts | 272° |
| 2026-04-12 13:39 | 1.54398 | 124.92342 | 336 ft | 0 kts | 272° |